McKinney, TX

01:22 AM CST del 26 novembre 2014 (GMT -0600)
Collin County Regional | Change Station
CLOSE
Current Station
Aeroporto
Location: McKinney,
Altitudine: 584 ft
Stazioni meteo nelle vicinanze

Alt. 584 ft 33.18 °N, 96.59 °W | Updated 29 minutes ago

Clear
Sereno
39 °F
Sembra 34 °F
N
7
Vento Variabile Vento da Sud

Oggi
Massima -- | Minima -- °F
--% Possibilità di precip.
Ieri
Massima -- | Minima -- °F
Precip. -- in
7:07 AM 5:19 PM
Luna crescente, 17% visible
Pressione 30.10 in
Visibilità 10.0 miglia
Nuvole Sereno
Raffreddamento del vento 34 °F
Punto di rugiada 32 °F
Umidità 76%
Piovosità 0.00 in
Spessore del manto nevoso Non disponibile.
Raggi UV 0 fuori da 12
Polline 4.10 fuori da 12
Qualità dell'aria Non disponibile.
Flu Activity Non disponibile.
METAR KTKI 260653Z AUTO 17006KT 10SM CLR 04/00 A3007 RMK AO2 SLP191 T00390000

More Conditions Fewer Conditions

Pressione 30.10 in
Visibilità 10.0 miglia
Nuvole Sereno
Raffreddamento del vento 34 °F
Punto di rugiada 32 °F
Umidità 76%
Piovosità 0.00 in
Spessore del manto nevoso Non disponibile.
Raggi UV 0 fuori da 12
Polline 4.10 fuori da 12
Qualità dell'aria Non disponibile.
Flu Activity Non disponibile.
METAR KTKI 260653Z AUTO 17006KT 10SM CLR 04/00 A3007 RMK AO2 SLP191 T00390000

More Conditions Fewer Conditions

10-Day Weather Forecast

Almanac

Astronomia

Nov. 26, 2014 Alba Tramonto
Ora attuale
Crepuscolo civile
Crepuscolo nautico
Crepuscolo astronomico
Luna
Estensione della luce visibile
Lunghezza del giorno
Tomorrow will be .
, % of the Moon is Illuminated

Gli estremi di oggi

State Highs State Lows

Community

WunderPhotos

Upload Photos

1,773,694 foto caricate!

WunderBlogs® & News

Nearby

Qualità dell'aria

  Qualità dell'aria Indice AQ Inquinante
Not available.

Profondità neve

Stazione Profondità Altitudine

Attività sismica

Città  Distanza Mag. Data & Ora
Minimo Magnitudo Mostrato è 2.5.

Temperature delle acque costiere

Località Temperatura

Stazioni meteo nelle vicinanze